Time;durP1;ratioP1;P1;durP2;ratioP2;P2;SDS_P1;SDS_P2;PMS_P1;PMS_P2;Temp;Humidity;BMP_temperature;BMP_pressure;BME280_temperature;BME280_humidity;BME280_pressure;Samples;Min_cycle;Max_cycle;Signal;HPM_P1;HPM_P2
2022/07/15 00:01:51;;;;;;;1.00;0.80;;;;;;;17.33;72.67;100590.28;5089145;28;20805;-48
2022/07/15 00:04:18;;;;;;;2.50;0.70;;;;;;;17.36;72.60;100585.63;5094710;28;20448;-49
2022/07/15 00:06:44;;;;;;;1.20;0.87;;;;;;;17.75;70.96;100587.19;5094233;28;20453;-48
2022/07/15 00:09:11;;;;;;;0.87;0.67;;;;;;;17.13;73.02;100592.19;5094295;28;20473;-48
2022/07/15 00:11:38;;;;;;;1.00;0.80;;;;;;;17.39;72.16;100596.19;5090127;28;20491;-48
2022/07/15 00:14:04;;;;;;;1.50;0.90;;;;;;;17.03;72.70;100593.59;5094473;28;20926;-50
2022/07/15 00:16:30;;;;;;;6.10;0.60;;;;;;;17.06;72.58;100589.88;5094592;28;20539;-48
2022/07/15 00:18:58;;;;;;;0.80;0.80;;;;;;;17.24;72.47;100591.63;5092690;28;20496;-49
2022/07/15 00:21:25;;;;;;;2.20;0.97;;;;;;;17.52;71.71;100584.81;5094543;28;20571;-49
2022/07/15 00:23:51;;;;;;;5.90;1.13;;;;;;;17.26;72.40;100581.66;5094538;28;20459;-48
2022/07/15 00:26:18;;;;;;;8.90;1.70;;;;;;;16.92;74.65;100587.03;5094267;28;20453;-49
2022/07/15 00:28:45;;;;;;;1.30;0.87;;;;;;;16.96;74.70;100593.97;5094202;28;20551;-48
2022/07/15 00:31:11;;;;;;;0.90;0.70;;;;;;;16.74;75.31;100596.88;5093765;28;20475;-51
2022/07/15 00:33:38;;;;;;;0.60;0.50;;;;;;;16.99;74.55;100586.63;5094308;28;20448;-49
2022/07/15 00:36:05;;;;;;;0.73;0.73;;;;;;;16.70;75.39;100593.44;5094276;28;20546;-48
2022/07/15 00:38:31;;;;;;;0.97;0.70;;;;;;;16.62;76.13;100594.75;5094236;28;20473;-49
2022/07/15 00:40:58;;;;;;;0.70;0.50;;;;;;;16.67;75.53;100598.97;5081617;28;20441;-48
2022/07/15 00:43:24;;;;;;;1.83;1.00;;;;;;;16.49;75.62;100603.38;5094155;28;20445;-48
2022/07/15 00:45:52;;;;;;;1.87;0.87;;;;;;;16.10;77.33;100606.13;5093800;28;20941;-49
2022/07/15 00:48:19;;;;;;;1.03;1.00;;;;;;;16.28;77.31;100599.03;5094014;28;20465;-49
2022/07/15 00:50:47;;;;;;;1.00;0.70;;;;;;;16.20;77.86;100599.41;5094106;28;20456;-48
2022/07/15 00:53:20;;;;;;;5.23;1.27;;;;;;;16.25;77.61;100604.53;5093958;28;20575;-49
2022/07/15 00:55:49;;;;;;;3.90;1.00;;;;;;;16.33;77.40;100606.88;5088048;28;20446;-48
2022/07/15 00:58:23;;;;;;;0.60;0.50;;;;;;;16.26;77.50;100608.97;5086342;28;20468;-48
2022/07/15 01:00:50;;;;;;;3.20;1.17;;;;;;;16.05;78.10;100608.16;5080377;28;20480;-48
2022/07/15 01:03:18;;;;;;;0.73;0.73;;;;;;;15.99;78.85;100613.78;5088176;28;20499;-48
2022/07/15 01:05:47;;;;;;;1.20;1.13;;;;;;;15.88;78.98;100610.72;5093686;28;20577;-49
2022/07/15 01:08:15;;;;;;;0.70;0.67;;;;;;;16.11;77.80;100607.00;5093103;28;20479;-48
2022/07/15 01:10:41;;;;;;;1.20;0.83;;;;;;;16.00;78.27;100605.66;5088354;28;20445;-48
2022/07/15 01:13:08;;;;;;;6.53;1.07;;;;;;;15.85;78.48;100603.69;5093467;28;20451;-49
2022/07/15 01:15:34;;;;;;;1.50;1.40;;;;;;;15.62;79.72;100596.69;5093524;28;20459;-49
2022/07/15 01:18:03;;;;;;;4.83;1.07;;;;;;;15.52;80.07;100598.00;5092719;28;20473;-50
2022/07/15 01:20:30;;;;;;;0.83;0.70;;;;;;;15.39;80.72;100605.72;5093243;28;20825;-48
2022/07/15 01:22:57;;;;;;;0.80;0.80;;;;;;;15.34;80.23;100601.47;5093290;28;20489;-48
2022/07/15 01:25:23;;;;;;;0.60;0.50;;;;;;;15.46;79.75;100606.28;5093126;28;20449;-49
2022/07/15 01:27:50;;;;;;;1.97;0.60;;;;;;;15.30;80.88;100598.06;5093090;28;20515;-48
2022/07/15 01:30:16;;;;;;;0.80;0.77;;;;;;;15.34;80.80;100599.66;5092632;28;20453;-48
2022/07/15 01:32:43;;;;;;;0.67;0.57;;;;;;;15.36;80.84;100604.97;5098166;28;20451;-49
2022/07/15 01:35:09;;;;;;;0.70;0.50;;;;;;;15.45;80.74;100607.22;5096201;28;20540;-48
2022/07/15 01:37:36;;;;;;;1.20;0.90;;;;;;;15.56;80.26;100604.09;5092472;28;20973;-49
2022/07/15 01:40:03;;;;;;;7.73;1.17;;;;;;;15.46;80.80;100608.09;5084952;28;20489;-48
2022/07/15 01:42:30;;;;;;;1.10;0.90;;;;;;;15.60;79.88;100608.41;5088400;28;20565;-48
2022/07/15 01:44:57;;;;;;;1.27;0.90;;;;;;;15.62;80.12;100604.75;5092754;28;20451;-48
2022/07/15 01:47:23;;;;;;;1.53;1.13;;;;;;;15.34;81.11;100606.81;5092606;28;20473;-47
2022/07/15 01:49:50;;;;;;;0.83;0.50;;;;;;;15.09;81.63;100609.69;5092963;28;20451;-47
2022/07/15 01:52:17;;;;;;;2.17;1.33;;;;;;;15.02;82.57;100611.75;5092539;28;20821;-47
2022/07/15 01:54:44;;;;;;;6.77;0.80;;;;;;;15.02;82.15;100608.19;5092515;28;20441;-48
2022/07/15 01:57:10;;;;;;;1.67;1.27;;;;;;;15.07;82.28;100606.19;5078457;28;20455;-48
2022/07/15 01:59:36;;;;;;;0.60;0.50;;;;;;;15.06;81.90;100610.66;5092382;28;20957;-47
2022/07/15 02:02:03;;;;;;;1.47;1.23;;;;;;;15.26;81.15;100608.97;5086758;28;20510;-50
2022/07/15 02:04:30;;;;;;;4.10;1.40;;;;;;;15.05;81.92;100605.38;5092151;28;20445;-49
2022/07/15 02:06:56;;;;;;;6.00;1.37;;;;;;;14.71;82.63;100609.47;5092571;28;20451;-47
2022/07/15 02:09:23;;;;;;;1.00;0.90;;;;;;;14.66;83.32;100606.09;5090083;28;20473;-48
2022/07/15 02:11:49;;;;;;;2.10;0.97;;;;;;;14.90;82.58;100608.69;5089115;28;20453;-48
2022/07/15 02:14:16;;;;;;;2.47;1.63;;;;;;;15.04;83.35;100607.19;5092338;28;20445;-48
2022/07/15 02:16:43;;;;;;;1.60;1.50;;;;;;;15.20;82.48;100601.19;5092266;28;20456;-48
2022/07/15 02:19:10;;;;;;;0.87;0.80;;;;;;;15.03;83.19;100601.91;5092305;28;20523;-48
2022/07/15 02:21:36;;;;;;;5.87;2.13;;;;;;;14.98;83.67;100610.13;5092008;28;20813;-47
2022/07/15 02:24:03;;;;;;;0.70;0.70;;;;;;;15.13;83.03;100597.03;5090750;28;20535;-48
2022/07/15 02:26:30;;;;;;;1.07;1.07;;;;;;;15.07;83.42;100600.84;5092381;28;20445;-49
2022/07/15 02:28:56;;;;;;;1.07;1.03;;;;;;;15.02;83.05;100600.16;5092442;28;20472;-48
2022/07/15 02:31:23;;;;;;;2.03;1.13;;;;;;;15.02;83.52;100601.03;5091563;28;20852;-47
2022/07/15 02:33:50;;;;;;;1.47;0.87;;;;;;;15.06;83.65;100613.34;5092176;28;20873;-48
2022/07/15 02:36:16;;;;;;;4.30;0.97;;;;;;;15.23;83.04;100610.00;5092069;28;20945;-47
2022/07/15 02:38:43;;;;;;;3.63;1.10;;;;;;;15.11;83.42;100603.34;5092003;28;20544;-47
2022/07/15 02:41:11;;;;;;;1.70;1.60;;;;;;;15.31;83.22;100606.97;5080200;28;20448;-48
2022/07/15 02:43:38;;;;;;;1.27;1.13;;;;;;;15.19;83.86;100613.72;5091955;28;20538;-47
2022/07/15 02:46:05;;;;;;;3.93;1.10;;;;;;;15.02;84.61;100618.91;5091982;28;20455;-48
2022/07/15 02:48:32;;;;;;;0.97;0.90;;;;;;;15.23;84.01;100612.66;5092339;28;20572;-48
2022/07/15 02:50:58;;;;;;;1.00;0.90;;;;;;;15.22;83.37;100618.97;5092901;28;20528;-52
2022/07/15 02:53:28;;;;;;;0.83;0.77;;;;;;;15.23;83.46;100622.50;5095981;28;20514;-52
2022/07/15 02:55:58;;;;;;;1.27;0.80;;;;;;;15.14;83.11;100622.88;5075819;28;20449;-52
2022/07/15 02:58:26;;;;;;;0.97;0.87;;;;;;;15.08;83.20;100622.22;5075880;28;20612;-52
2022/07/15 03:00:53;;;;;;;1.20;1.10;;;;;;;15.06;83.44;100617.84;5075696;28;20446;-52
2022/07/15 03:03:20;;;;;;;1.27;0.97;;;;;;;14.89;83.54;100626.56;5075155;28;20854;-51
2022/07/15 03:05:48;;;;;;;1.17;0.60;;;;;;;14.89;84.20;100628.38;5075448;28;20445;-52
2022/07/15 03:08:16;;;;;;;0.70;0.57;;;;;;;14.90;83.86;100639.03;5075549;28;20492;-51
2022/07/15 03:10:42;;;;;;;7.40;1.60;;;;;;;14.56;83.82;100644.88;5075601;28;20453;-52
2022/07/15 03:13:09;;;;;;;0.80;0.70;;;;;;;14.48;84.77;100641.59;5075676;28;20441;-52
2022/07/15 03:15:35;;;;;;;2.00;1.00;;;;;;;14.39;85.27;100642.81;5075693;28;20456;-52
2022/07/15 03:18:02;;;;;;;0.73;0.53;;;;;;;14.44;84.94;100638.19;5074977;28;20994;-52
2022/07/15 03:20:28;;;;;;;1.67;1.00;;;;;;;14.43;85.94;100640.88;5075186;28;20450;-51
2022/07/15 03:22:55;;;;;;;1.13;1.03;;;;;;;14.52;85.61;100641.41;5075307;28;20486;-51
2022/07/15 03:25:21;;;;;;;2.33;0.80;;;;;;;14.42;85.33;100639.16;5075065;28;20453;-51
2022/07/15 03:27:48;;;;;;;0.97;0.80;;;;;;;14.36;85.48;100647.38;5075166;28;20466;-52
2022/07/15 03:30:14;;;;;;;1.27;1.17;;;;;;;14.09;86.29;100652.84;5075106;28;20472;-52
2022/07/15 03:32:41;;;;;;;1.83;0.87;;;;;;;14.03;86.86;100654.88;5075092;28;20450;-51
2022/07/15 03:35:09;;;;;;;1.20;1.10;;;;;;;14.17;86.90;100656.13;5075032;28;20449;-51
2022/07/15 03:37:36;;;;;;;1.63;1.40;;;;;;;14.17;86.70;100652.56;5075027;28;20466;-51
2022/07/15 03:40:03;;;;;;;12.83;1.60;;;;;;;14.30;86.59;100661.88;5075073;28;20457;-51
2022/07/15 03:42:29;;;;;;;7.33;1.77;;;;;;;14.07;88.29;100653.84;5074792;28;20499;-51
2022/07/15 03:44:56;;;;;;;2.40;1.47;;;;;;;14.36;87.59;100655.41;5075430;28;20828;-52
2022/07/15 03:47:23;;;;;;;3.13;1.70;;;;;;;14.17;88.44;100666.81;5076715;28;20469;-52
2022/07/15 03:49:49;;;;;;;1.00;0.97;;;;;;;14.33;87.79;100659.09;5074900;28;20454;-51
2022/07/15 03:52:15;;;;;;;1.00;0.90;;;;;;;14.55;87.20;100669.00;5074907;28;20449;-51
2022/07/15 03:54:42;;;;;;;7.30;1.13;;;;;;;14.46;87.85;100671.09;5085128;28;20441;-51
2022/07/15 03:57:08;;;;;;;9.20;1.33;;;;;;;14.71;87.28;100671.00;5081172;28;20449;-51
2022/07/15 03:59:35;;;;;;;0.80;0.70;;;;;;;14.68;87.34;100678.28;5094716;28;20459;-51
2022/07/15 04:02:01;;;;;;;1.57;1.20;;;;;;;14.79;87.51;100673.38;5089462;28;20467;-51
2022/07/15 04:04:28;;;;;;;1.30;1.10;;;;;;;15.00;86.48;100671.66;5094398;28;20471;-51
2022/07/15 04:06:54;;;;;;;12.67;1.63;;;;;;;15.17;86.03;100671.81;5094565;28;20880;-51
2022/07/15 04:09:21;;;;;;;2.30;0.90;;;;;;;15.00;87.18;100682.34;5092637;28;20898;-51
2022/07/15 04:11:47;;;;;;;0.80;0.60;;;;;;;15.10;86.95;100686.41;5091567;28;20455;-51
2022/07/15 04:14:14;;;;;;;1.90;1.00;;;;;;;15.14;86.85;100679.13;5094825;28;20444;-51
2022/07/15 04:16:41;;;;;;;1.30;1.30;;;;;;;15.07;86.83;100679.34;5094528;28;20805;-51
2022/07/15 04:19:07;;;;;;;0.90;0.80;;;;;;;15.21;86.55;100683.28;5094319;28;20500;-52
2022/07/15 04:21:34;;;;;;;4.60;1.50;;;;;;;15.39;86.21;100682.53;5094059;28;20449;-51
2022/07/15 04:24:00;;;;;;;3.40;1.10;;;;;;;15.31;86.26;100688.19;5094345;28;20493;-52
2022/07/15 04:26:27;;;;;;;0.77;0.70;;;;;;;15.49;85.67;100682.97;5094336;28;20507;-52
2022/07/15 04:28:55;;;;;;;1.20;1.03;;;;;;;15.54;85.69;100689.03;5094398;28;20469;-51
2022/07/15 04:31:22;;;;;;;3.13;1.10;;;;;;;15.53;86.55;100687.31;5093647;28;20461;-52
2022/07/15 04:33:48;;;;;;;4.17;1.70;;;;;;;15.61;85.93;100683.38;5094561;28;20441;-52
2022/07/15 04:36:15;;;;;;;1.07;0.97;;;;;;;15.78;85.73;100685.34;5094440;28;20479;-52
2022/07/15 04:38:41;;;;;;;0.90;0.80;;;;;;;15.85;85.08;100684.13;5094026;28;20473;-53
2022/07/15 04:41:08;;;;;;;2.20;1.30;;;;;;;15.94;84.31;100690.91;5082150;28;20453;-51
2022/07/15 04:43:34;;;;;;;1.03;0.80;;;;;;;16.05;84.53;100680.56;5093796;28;20490;-52
2022/07/15 04:46:01;;;;;;;2.10;1.33;;;;;;;16.22;83.21;100685.16;5093817;28;20978;-52
2022/07/15 04:51:13;;;;;;;4.03;1.07;;;;;;;17.13;80.07;100683.53;5094009;28;20448;-52
2022/07/15 04:53:40;;;;;;;6.53;0.60;;;;;;;17.53;78.61;100688.69;5094096;28;20441;-52
2022/07/15 04:56:06;;;;;;;2.80;0.87;;;;;;;17.66;78.12;100689.81;5085345;28;20450;-52
2022/07/15 04:58:33;;;;;;;6.90;0.87;;;;;;;17.64;78.11;100691.72;5088736;28;20469;-53
2022/07/15 05:00:59;;;;;;;15.20;1.47;;;;;;;18.26;76.26;100691.16;5093481;28;20449;-52
2022/07/15 05:03:26;;;;;;;3.63;0.93;;;;;;;18.68;74.44;100694.28;5088249;28;20485;-53
2022/07/15 05:05:53;;;;;;;0.80;0.70;;;;;;;18.40;75.73;100689.53;5093586;28;20445;-52
2022/07/15 05:08:20;;;;;;;3.83;0.70;;;;;;;18.64;74.69;100691.78;5093659;28;20465;-53
2022/07/15 05:10:47;;;;;;;4.10;1.67;;;;;;;19.23;73.02;100694.72;5088183;28;20877;-51
2022/07/15 05:13:13;;;;;;;2.63;0.77;;;;;;;19.56;71.65;100696.44;5093275;28;20540;-52
2022/07/15 05:15:40;;;;;;;1.13;1.03;;;;;;;20.34;68.76;100692.53;5092450;28;20934;-52
2022/07/15 05:18:06;;;;;;;2.27;1.00;;;;;;;20.68;67.05;100696.69;5093302;28;20899;-53
2022/07/15 05:20:33;;;;;;;7.40;0.70;;;;;;;21.11;65.05;100705.63;5093523;28;20449;-52
2022/07/15 05:22:59;;;;;;;10.43;0.90;;;;;;;20.91;65.74;100708.72;5093033;28;20989;-53
2022/07/15 05:25:26;;;;;;;1.83;0.83;;;;;;;21.18;65.04;100708.75;5092898;28;20449;-53
2022/07/15 05:27:52;;;;;;;1.10;0.70;;;;;;;21.52;63.47;100716.41;5093185;28;20468;-53
2022/07/15 05:30:19;;;;;;;6.60;0.87;;;;;;;21.80;62.92;100714.53;5093077;28;20449;-53
2022/07/15 05:32:46;;;;;;;1.20;0.93;;;;;;;22.15;60.73;100701.28;5092762;28;20822;-52
2022/07/15 05:35:14;;;;;;;2.47;2.30;;;;;;;21.94;61.54;100709.03;5092959;28;20484;-53
2022/07/15 05:37:42;;;;;;;4.53;1.10;;;;;;;21.98;61.31;100709.69;5092818;28;20556;-52
2022/07/15 05:40:10;;;;;;;1.30;1.20;;;;;;;22.26;60.35;100723.06;5084356;28;20935;-52
2022/07/15 05:42:38;;;;;;;0.87;0.73;;;;;;;22.26;59.42;100722.22;5090287;28;20833;-52
2022/07/15 05:45:05;;;;;;;3.90;1.77;;;;;;;22.50;58.60;100727.75;5092889;28;20449;-53
2022/07/15 05:47:32;;;;;;;1.10;0.77;;;;;;;21.58;61.32;100734.06;5092739;28;20905;-52
2022/07/15 05:49:59;;;;;;;1.37;1.07;;;;;;;21.08;62.80;100731.97;5092846;28;20445;-53
2022/07/15 05:52:25;;;;;;;0.90;0.80;;;;;;;21.15;61.66;100730.59;5092429;28;21021;-53
2022/07/15 05:54:52;;;;;;;4.07;1.50;;;;;;;20.00;65.44;100735.09;5092635;28;20437;-53
2022/07/15 05:57:18;;;;;;;6.43;0.83;;;;;;;20.01;66.04;100728.75;5079035;28;20451;-53
2022/07/15 05:59:45;;;;;;;0.80;0.50;;;;;;;19.85;67.58;100744.13;5093433;28;20451;-53
2022/07/15 06:02:13;;;;;;;4.33;1.23;;;;;;;20.10;66.41;100740.81;5088053;28;20460;-53
2022/07/15 06:04:41;;;;;;;1.37;0.57;;;;;;;19.93;67.00;100741.84;5092494;28;20495;-52
2022/07/15 06:07:07;;;;;;;0.73;0.60;;;;;;;20.03;67.14;100743.03;5091966;28;20453;-52
2022/07/15 06:09:34;;;;;;;8.90;0.93;;;;;;;19.69;67.65;100740.59;5089005;28;20454;-52
2022/07/15 06:12:00;;;;;;;4.80;0.47;;;;;;;19.93;66.86;100743.66;5091429;28;20496;-52
2022/07/15 06:14:26;;;;;;;6.00;0.80;;;;;;;19.63;67.62;100749.94;5092310;28;20478;-52
2022/07/15 06:17:02;;;;;;;1.33;0.50;;;;;;;19.71;68.33;100747.63;5079335;28;20436;-52
2022/07/15 06:19:28;;;;;;;0.60;0.60;;;;;;;19.39;68.56;100741.41;5091960;28;20455;-52
2022/07/15 06:21:55;;;;;;;2.67;2.47;;;;;;;19.49;68.54;100744.44;5092568;28;20449;-52
2022/07/15 06:24:21;;;;;;;1.93;1.03;;;;;;;19.86;67.03;100742.28;5092164;28;20498;-52
2022/07/15 06:26:48;;;;;;;0.93;0.93;;;;;;;20.01;66.94;100742.25;5092268;28;20494;-52
2022/07/15 06:29:14;;;;;;;8.77;1.00;;;;;;;20.35;65.31;100750.97;5092069;28;20852;-52
2022/07/15 06:31:40;;;;;;;2.10;0.87;;;;;;;21.10;62.88;100744.41;5091975;28;20475;-52
2022/07/15 06:34:08;;;;;;;0.90;0.70;;;;;;;21.21;63.11;100749.97;5091811;28;20884;-52
2022/07/15 06:36:36;;;;;;;0.83;0.70;;;;;;;21.50;61.63;100745.38;5092170;28;20821;-52
2022/07/15 06:39:03;;;;;;;5.00;1.07;;;;;;;21.54;61.42;100746.06;5092225;28;20496;-52
2022/07/15 06:41:31;;;;;;;15.77;1.30;;;;;;;21.61;60.68;100741.09;5080255;28;20448;-53
2022/07/15 06:43:58;;;;;;;1.50;0.80;;;;;;;21.83;59.79;100739.56;5091937;28;20858;-52
2022/07/15 06:46:25;;;;;;;3.13;0.70;;;;;;;21.89;59.92;100730.13;5092024;28;20506;-51
2022/07/15 06:48:52;;;;;;;11.53;0.97;;;;;;;22.15;59.56;100734.66;5091685;28;21063;-52
2022/07/15 06:51:18;;;;;;;0.80;0.73;;;;;;;22.29;58.94;100735.53;5091979;28;20453;-53
2022/07/15 06:53:45;;;;;;;1.10;0.60;;;;;;;22.27;57.99;100737.47;5092065;28;20535;-53
2022/07/15 06:56:12;;;;;;;1.07;0.97;;;;;;;22.18;58.72;100741.69;5083282;28;20456;-52
2022/07/15 06:58:39;;;;;;;6.47;0.67;;;;;;;22.14;59.93;100743.75;5087644;28;20639;-52
2022/07/15 07:01:05;;;;;;;0.97;0.70;;;;;;;22.57;58.14;100746.16;5090602;28;20445;-52
2022/07/15 07:03:32;;;;;;;1.33;1.23;;;;;;;22.58;56.37;100741.59;5087654;28;20495;-52
2022/07/15 07:06:18;;;;;;;1.30;0.50;;;;;;;22.81;56.40;100740.81;5091624;28;20452;-52
2022/07/15 07:08:46;;;;;;;0.97;0.80;;;;;;;22.87;56.92;100742.22;5091559;28;20835;-53
2022/07/15 07:11:14;;;;;;;1.73;0.77;;;;;;;23.08;55.25;100745.25;5086742;28;20448;-53
2022/07/15 07:13:41;;;;;;;17.80;1.07;;;;;;;23.20;55.19;100745.22;5091442;28;20487;-51
2022/07/15 07:16:07;;;;;;;0.67;0.63;;;;;;;22.76;56.35;100749.28;5091787;28;20820;-53
2022/07/15 07:18:35;;;;;;;16.93;1.10;;;;;;;22.29;57.34;100746.38;5091531;28;20465;-52
2022/07/15 07:21:01;;;;;;;4.43;0.70;;;;;;;22.40;57.96;100744.63;5091854;28;20449;-52
2022/07/15 07:23:29;;;;;;;1.83;0.80;;;;;;;22.17;57.01;100748.94;5091522;28;20493;-52
2022/07/15 07:25:57;;;;;;;1.30;0.77;;;;;;;22.27;56.62;100753.72;5091624;28;20480;-52
2022/07/15 07:28:23;;;;;;;1.10;0.97;;;;;;;22.57;56.10;100762.41;5071635;28;20474;-53
2022/07/15 07:30:52;;;;;;;7.40;1.23;;;;;;;21.79;57.76;100747.97;5071279;28;20548;-52
2022/07/15 07:33:18;;;;;;;1.50;0.83;;;;;;;22.31;57.37;100752.53;5071180;28;20962;-52
2022/07/15 07:35:45;;;;;;;0.77;0.63;;;;;;;22.43;56.58;100740.84;5071439;28;20464;-53
2022/07/15 07:38:12;;;;;;;3.17;1.00;;;;;;;22.70;56.12;100743.44;5072726;28;20466;-53
2022/07/15 07:40:38;;;;;;;1.90;0.77;;;;;;;22.51;56.95;100740.31;5075080;28;20456;-53
2022/07/15 07:43:05;;;;;;;1.27;1.10;;;;;;;22.34;57.25;100742.38;5074800;28;20442;-52
2022/07/15 07:45:31;;;;;;;1.00;1.00;;;;;;;22.81;55.67;100737.25;5075058;28;20446;-54
2022/07/15 07:47:58;;;;;;;6.53;1.00;;;;;;;22.67;55.86;100730.97;5074765;28;20465;-51
2022/07/15 07:50:25;;;;;;;1.20;0.80;;;;;;;22.93;55.95;100744.53;5074768;28;20446;-52
2022/07/15 07:52:52;;;;;;;1.10;0.70;;;;;;;23.27;54.68;100743.75;5074805;28;20454;-52
2022/07/15 07:55:18;;;;;;;36.10;1.40;;;;;;;23.40;55.27;100746.41;5087960;28;20437;-53
2022/07/15 07:57:49;;;;;;;1.03;0.83;;;;;;;23.00;53.85;100749.38;5082960;28;20487;-52
2022/07/15 08:00:17;;;;;;;1.07;0.80;;;;;;;22.99;53.67;100744.06;5094941;28;20502;-51
2022/07/15 08:02:43;;;;;;;1.10;1.00;;;;;;;23.19;53.17;100742.63;5089591;28;20545;-52
2022/07/15 08:05:11;;;;;;;9.83;0.90;;;;;;;23.55;52.85;100750.69;5094587;28;21083;-52
2022/07/15 08:07:38;;;;;;;2.10;0.97;;;;;;;23.60;52.76;100756.69;5094712;28;20558;-51
2022/07/15 08:10:05;;;;;;;17.97;1.53;;;;;;;23.65;50.94;100750.91;5089309;28;20449;-52
2022/07/15 08:12:32;;;;;;;2.20;2.00;;;;;;;23.71;51.07;100752.28;5094505;28;20953;-52
2022/07/15 08:14:59;;;;;;;2.13;1.33;;;;;;;24.01;49.71;100754.53;5095343;28;20441;-53
2022/07/15 08:17:25;;;;;;;1.70;1.60;;;;;;;23.45;51.18;100746.09;5095281;28;20471;-52
2022/07/15 08:19:52;;;;;;;1.60;1.50;;;;;;;23.60;49.68;100756.69;5094700;28;20528;-52
2022/07/15 08:22:18;;;;;;;6.57;1.23;;;;;;;24.14;48.03;100750.75;5094711;28;20453;-52
2022/07/15 08:24:45;;;;;;;1.97;1.13;;;;;;;24.03;49.89;100750.69;5094202;28;20485;-53
2022/07/15 08:27:12;;;;;;;1.57;1.47;;;;;;;23.27;51.77;100745.59;5094968;28;20449;-52
2022/07/15 08:29:38;;;;;;;3.20;1.40;;;;;;;23.82;50.37;100745.06;5093925;28;21052;-52
2022/07/15 08:32:05;;;;;;;1.80;1.23;;;;;;;23.68;50.16;100752.53;5094431;28;20544;-52
2022/07/15 08:34:31;;;;;;;2.47;1.33;;;;;;;24.26;48.37;100743.50;5094180;28;20991;-51
2022/07/15 08:36:58;;;;;;;1.00;1.00;;;;;;;23.91;48.33;100749.78;5094105;28;20463;-52
2022/07/15 08:39:24;;;;;;;18.57;1.90;;;;;;;23.57;48.70;100743.38;5091759;28;20465;-53
2022/07/15 08:41:51;;;;;;;1.57;1.47;;;;;;;23.53;50.10;100749.09;5083656;28;20564;-52
2022/07/15 08:44:18;;;;;;;1.63;1.53;;;;;;;23.85;49.79;100731.28;5093634;28;20576;-52
2022/07/15 08:46:47;;;;;;;3.17;1.57;;;;;;;23.75;49.96;100743.81;5094127;28;20536;-52
2022/07/15 08:49:16;;;;;;;4.03;1.20;;;;;;;24.29;49.09;100747.81;5094186;28;20469;-52
2022/07/15 08:51:45;;;;;;;1.23;1.13;;;;;;;24.16;49.42;100743.34;5093922;28;20530;-52
2022/07/15 08:54:13;;;;;;;1.30;1.00;;;;;;;24.17;49.12;100739.63;5094045;28;20437;-51
2022/07/15 08:56:39;;;;;;;6.33;1.50;;;;;;;23.97;49.25;100742.16;5081181;28;20449;-52
2022/07/15 08:59:07;;;;;;;1.53;1.43;;;;;;;24.20;49.17;100746.66;5092912;28;20464;-51
2022/07/15 09:01:40;;;;;;;1.20;0.80;;;;;;;23.83;49.21;100744.06;5088617;28;20458;-51
2022/07/15 09:04:07;;;;;;;7.37;1.53;;;;;;;24.84;45.89;100741.59;5093706;28;20484;-52
2022/07/15 09:06:46;;;;;;;1.27;1.17;;;;;;;24.80;46.08;100745.53;5093733;28;20452;-52
2022/07/15 09:09:31;;;;;;;1.60;1.50;;;;;;;24.85;46.05;100746.03;5092775;28;21004;-52
2022/07/15 09:12:09;;;;;;;9.40;2.30;;;;;;;24.12;47.86;100743.66;5092070;28;20444;-52
2022/07/15 09:14:44;;;;;;;7.33;1.33;;;;;;;24.12;47.06;100743.66;5093423;28;20467;-52
2022/07/15 09:17:11;;;;;;;2.33;2.13;;;;;;;23.71;47.71;100738.72;5093243;28;20934;-52
2022/07/15 09:19:59;;;;;;;3.10;1.20;;;;;;;24.90;46.90;100740.22;5093076;28;20448;-52
2022/07/15 09:22:32;;;;;;;1.37;1.27;;;;;;;24.56;47.18;100742.06;5093560;28;20860;-52
2022/07/15 09:25:07;;;;;;;2.13;1.03;;;;;;;24.24;47.31;100743.56;5093130;28;20476;-52
2022/07/15 09:27:37;;;;;;;3.27;1.13;;;;;;;24.85;46.74;100739.72;5093264;28;20548;-52
2022/07/15 09:36:01;;;;;;;8.00;1.27;;;;;;;24.58;46.10;100745.53;5092914;28;20840;-53
2022/07/15 09:38:31;;;;;;;3.90;0.90;;;;;;;24.55;44.92;100740.34;5092658;28;20970;-53
2022/07/15 09:40:59;;;;;;;3.20;1.67;;;;;;;24.09;46.65;100741.19;5080897;28;20455;-53
2022/07/15 09:43:25;;;;;;;1.40;1.10;;;;;;;25.20;43.73;100737.72;5092882;28;20449;-52
2022/07/15 09:45:57;;;;;;;0.87;0.87;;;;;;;25.25;43.25;100742.81;5093107;28;20572;-53
2022/07/15 09:48:24;;;;;;;4.60;1.60;;;;;;;25.02;43.69;100750.13;5092986;28;20465;-53
2022/07/15 09:50:58;;;;;;;1.77;1.67;;;;;;;24.79;44.94;100741.06;5092729;28;20510;-52
2022/07/15 09:53:24;;;;;;;1.20;1.00;;;;;;;24.92;43.89;100746.38;5092813;28;20845;-51
2022/07/15 09:55:52;;;;;;;2.03;0.80;;;;;;;24.56;45.07;100742.06;5086190;28;20935;-52
2022/07/15 09:58:20;;;;;;;1.97;1.20;;;;;;;24.29;45.73;100745.97;5085180;28;20556;-51
2022/07/15 10:00:47;;;;;;;1.43;1.20;;;;;;;24.45;44.88;100737.47;5091828;28;20830;-52
2022/07/15 10:03:16;;;;;;;1.10;1.00;;;;;;;25.32;43.65;100744.00;5086986;28;20509;-52
2022/07/15 10:05:43;;;;;;;1.57;0.80;;;;;;;24.92;43.77;100752.69;5079349;28;20495;-52
2022/07/15 10:08:14;;;;;;;2.17;1.27;;;;;;;25.28;43.22;100745.28;5092528;28;20464;-52
2022/07/15 10:10:40;;;;;;;1.30;1.13;;;;;;;25.65;41.88;100746.66;5086970;28;20437;-51
2022/07/15 10:13:29;;;;;;;5.47;2.07;;;;;;;25.95;41.03;100745.06;5092164;28;20452;-52
2022/07/15 10:16:14;;;;;;;5.80;1.37;;;;;;;25.19;42.30;100736.00;5092394;28;20449;-51
2022/07/15 10:19:05;;;;;;;1.00;0.90;;;;;;;24.83;42.93;100736.28;5079560;28;20469;-52
2022/07/15 10:21:49;;;;;;;1.07;0.97;;;;;;;24.47;44.24;100728.22;5092396;28;20449;-51
2022/07/15 10:24:31;;;;;;;1.13;1.03;;;;;;;25.21;43.39;100731.28;5092154;28;20982;-51
2022/07/15 10:27:19;;;;;;;2.60;1.73;;;;;;;24.62;43.56;100726.13;5091831;28;20445;-52
2022/07/15 10:29:46;;;;;;;2.30;1.20;;;;;;;25.16;43.59;100733.53;5092287;28;20478;-52
2022/07/15 10:32:13;;;;;;;0.80;0.70;;;;;;;25.67;42.02;100730.19;5092307;28;20528;-51
2022/07/15 10:34:43;;;;;;;1.87;1.77;;;;;;;25.13;42.72;100725.63;5092308;28;20441;-51
2022/07/15 10:37:11;;;;;;;1.20;1.10;;;;;;;25.10;43.65;100728.63;5091940;28;20963;-52
2022/07/15 10:39:49;;;;;;;1.57;1.47;;;;;;;24.31;44.44;100730.44;5087464;28;20450;-52
2022/07/15 10:42:17;;;;;;;2.00;1.27;;;;;;;24.44;44.91;100727.59;5086078;28;20837;-52
2022/07/15 10:45:04;;;;;;;0.70;0.60;;;;;;;24.44;44.81;100722.16;5092253;28;20489;-52
2022/07/15 10:47:31;;;;;;;1.50;1.13;;;;;;;24.18;45.75;100718.75;5092225;28;20464;-51
2022/07/15 10:49:58;;;;;;;5.93;0.97;;;;;;;24.55;44.45;100713.16;5092557;28;20449;-52
2022/07/15 10:52:31;;;;;;;1.03;0.93;;;;;;;24.62;45.06;100708.94;5092281;28;20478;-52
2022/07/15 10:55:04;;;;;;;5.60;0.70;;;;;;;25.08;43.69;100712.41;5092064;28;20441;-52
2022/07/15 10:57:39;;;;;;;4.97;1.40;;;;;;;25.17;42.84;100713.50;5078517;28;20471;-51
2022/07/15 11:00:28;;;;;;;1.27;1.03;;;;;;;25.20;43.20;100706.94;5092052;28;20456;-51
2022/07/15 11:03:05;;;;;;;1.07;0.97;;;;;;;25.35;41.84;100713.81;5086241;28;20946;-52
2022/07/15 11:05:33;;;;;;;1.80;1.13;;;;;;;24.85;42.54;100699.78;5092041;28;20484;-52
2022/07/15 11:08:00;;;;;;;1.23;1.13;;;;;;;24.82;42.56;100708.22;5091813;28;20507;-52
2022/07/15 11:10:26;;;;;;;6.43;1.53;;;;;;;25.44;41.42;100704.88;5086774;28;20445;-51
2022/07/15 11:12:53;;;;;;;3.27;1.33;;;;;;;25.07;40.71;100710.66;5092270;28;20453;-52
2022/07/15 11:15:23;;;;;;;1.10;1.00;;;;;;;24.96;41.66;100710.66;5095702;28;20444;-52
2022/07/15 11:17:53;;;;;;;1.00;0.90;;;;;;;24.65;42.59;100712.28;5095778;28;20479;-52
2022/07/15 11:20:38;;;;;;;1.30;1.20;;;;;;;24.57;42.02;100701.16;5095986;28;20444;-51
2022/07/15 11:23:07;;;;;;;3.33;1.20;;;;;;;24.77;42.16;100702.25;5095655;28;20444;-53
2022/07/15 11:25:37;;;;;;;1.40;1.30;;;;;;;25.25;40.68;100685.66;5095250;28;20489;-53
2022/07/15 11:28:12;;;;;;;4.90;1.10;;;;;;;25.23;41.08;100684.94;5095624;28;20477;-53
2022/07/15 11:30:47;;;;;;;1.00;0.90;;;;;;;24.95;41.66;100689.91;5095489;28;20476;-53
2022/07/15 11:33:16;;;;;;;1.20;1.00;;;;;;;25.20;40.89;100685.16;5082842;28;20449;-52
2022/07/15 11:35:45;;;;;;;11.63;1.50;;;;;;;25.76;39.88;100684.97;5095355;28;20728;-53
2022/07/15 11:38:11;;;;;;;0.87;0.87;;;;;;;26.10;39.42;100680.22;5095124;28;20469;-53